Time;durP1;ratioP1;P1;durP2;ratioP2;P2;SDS_P1;SDS_P2;PMS_P1;PMS_P2;Temp;Humidity;BMP_temperature;BMP_pressure;BME280_temperature;BME280_humidity;BME280_pressure;Samples;Min_cycle;Max_cycle;Signal;HPM_P1;HPM_P2
2022/12/01 00:00:21;;;;;;;32.53;23.47;;;1.90;99.90;0.90;101852;;;;582750;246;24134;-79
2022/12/01 00:02:49;;;;;;;29.03;21.17;;;1.90;99.90;1.00;101859;;;;572221;251;24135;-75
2022/12/01 00:05:17;;;;;;;31.23;21.17;;;1.90;99.90;1.00;101853;;;;582501;246;24186;-74
2022/12/01 00:07:45;;;;;;;31.97;22.40;;;2.00;99.90;1.00;101853;;;;571884;251;24253;-74
2022/12/01 00:10:26;;;;;;;32.13;23.67;;;1.90;99.90;1.00;101850;;;;582389;246;25197;-75
2022/12/01 00:12:56;;;;;;;29.83;20.90;;;2.00;99.90;1.00;101851;;;;571964;251;24158;-74
2022/12/01 00:15:30;;;;;;;32.37;21.10;;;2.00;99.90;1.00;101841;;;;583911;244;25158;-75
2022/12/01 00:17:57;;;;;;;33.60;22.93;;;2.00;99.90;1.00;101851;;;;573367;250;24121;-74
2022/12/01 00:20:28;;;;;;;33.90;20.93;;;2.00;99.90;1.00;101850;;;;583580;246;24115;-74
2022/12/01 00:22:53;;;;;;;34.33;21.90;;;2.00;99.90;1.00;101849;;;;583180;246;24157;-76
2022/12/01 00:25:21;;;;;;;30.67;20.87;;;2.00;99.90;1.00;101842;;;;572379;250;24171;-79
2022/12/01 00:27:49;;;;;;;30.67;21.27;;;2.00;99.90;1.00;101854;;;;583009;246;24128;-75
2022/12/01 00:30:18;;;;;;;29.77;20.63;;;2.00;99.90;1.00;101848;;;;572372;250;24125;-75
2022/12/01 00:32:46;;;;;;;30.90;19.83;;;2.00;99.90;1.00;101858;;;;582802;246;24140;-76
2022/12/01 00:35:17;;;;;;;28.20;20.33;;;2.00;99.90;1.00;101852;;;;572203;251;24178;-75
2022/12/01 00:37:41;;;;;;;30.03;21.27;;;2.00;99.90;1.00;101854;;;;582658;246;24148;-76
2022/12/01 00:40:09;;;;;;;31.45;23.48;;;2.00;99.90;1.10;101849;;;;567156;251;35487;-80
2022/12/01 00:42:37;;;;;;;23.50;11.67;;;2.00;99.90;1.10;101848;;;;582677;246;24151;-78
2022/12/01 00:45:05;;;;;;;23.63;16.50;;;2.00;99.90;1.10;101847;;;;572436;251;24123;-80
2022/12/01 00:47:33;;;;;;;30.60;19.47;;;2.10;99.90;1.10;101857;;;;582612;246;24145;-75
2022/12/01 00:50:05;;;;;;;30.43;20.20;;;2.10;99.90;1.10;101843;;;;572207;251;24124;-76
2022/12/01 00:52:29;;;;;;;26.50;18.87;;;2.10;99.90;1.10;101842;;;;582220;246;24100;-75
2022/12/01 00:54:57;;;;;;;28.23;20.53;;;2.10;99.90;1.10;101843;;;;582270;246;24140;-74
2022/12/01 00:57:29;;;;;;;26.17;19.97;;;2.00;99.90;1.10;101840;;;;572053;251;24148;-74
2022/12/01 00:59:53;;;;;;;27.50;18.83;;;2.00;99.90;1.10;101837;;;;582387;246;24158;-77
2022/12/01 01:02:21;;;;;;;26.77;18.27;;;2.00;99.90;1.10;101845;;;;572066;251;24157;-75
2022/12/01 01:04:49;;;;;;;25.40;18.70;;;2.00;99.90;1.10;101842;;;;582407;246;24147;-75
2022/12/01 01:07:19;;;;;;;24.77;19.27;;;2.10;99.90;1.10;101839;;;;571906;251;24150;-74
2022/12/01 01:09:46;;;;;;;25.50;18.90;;;2.10;99.90;1.10;101835;;;;582457;246;24148;-74
2022/12/01 01:12:13;;;;;;;27.50;18.85;;;2.10;99.90;1.10;101846;;;;566871;251;35502;-76
2022/12/01 01:14:41;;;;;;;22.33;11.83;;;2.10;99.90;1.10;101839;;;;582396;246;24167;-74
2022/12/01 01:17:09;;;;;;;21.30;14.30;;;2.10;99.90;1.20;101846;;;;571966;251;24190;-74
2022/12/01 01:19:37;;;;;;;24.70;18.07;;;2.10;99.90;1.20;101831;;;;582323;246;24108;-75
2022/12/01 01:22:05;;;;;;;24.43;16.90;;;2.10;99.90;1.20;101843;;;;571977;251;24112;-74
2022/12/01 01:24:33;;;;;;;24.50;18.13;;;2.10;99.90;1.20;101843;;;;582814;246;24121;-76
2022/12/01 01:27:01;;;;;;;23.97;18.00;;;2.20;99.90;1.20;101842;;;;573819;249;24136;-82
2022/12/01 01:29:29;;;;;;;24.00;16.67;;;2.20;99.90;1.20;101844;;;;583796;246;24104;-80
2022/12/01 01:31:56;;;;;;;20.70;15.80;;;2.20;99.90;1.20;101843;;;;572930;251;24170;-79
2022/12/01 01:34:24;;;;;;;21.00;15.93;;;2.20;99.90;1.20;101850;;;;583354;246;24131;-75
2022/12/01 01:36:52;;;;;;;20.30;14.87;;;2.20;99.90;1.20;101849;;;;572862;251;24159;-76
2022/12/01 01:39:21;;;;;;;21.90;15.90;;;2.20;99.90;1.20;101841;;;;583214;246;24107;-79
2022/12/01 01:41:49;;;;;;;23.20;16.07;;;2.20;99.90;1.20;101847;;;;572643;251;24138;-79
2022/12/01 01:44:50;;;;;;;22.37;15.97;;;2.20;99.90;1.20;101841;;;;582895;246;24479;-73
2022/12/01 01:47:30;;;;;;;22.97;15.90;;;2.20;99.90;1.20;101843;;;;572547;251;24181;-74
2022/12/01 01:49:59;;;;;;;20.17;15.37;;;2.20;99.90;1.20;101838;;;;582650;246;24108;-76
2022/12/01 01:52:26;;;;;;;22.37;15.57;;;2.20;99.90;1.30;101846;;;;582691;246;24114;-76
2022/12/01 01:54:57;;;;;;;19.27;14.70;;;2.20;99.90;1.30;101835;;;;571782;251;24150;-79
2022/12/01 01:57:27;;;;;;;19.60;14.90;;;2.20;99.90;1.30;101835;;;;582589;246;24107;-79
2022/12/01 01:59:55;;;;;;;19.70;14.67;;;2.20;99.90;1.30;101835;;;;579892;247;24104;-76
2022/12/01 02:02:24;;;;;;;20.10;15.10;;;2.20;99.90;1.30;101837;;;;591963;242;24088;-80
2022/12/01 02:04:54;;;;;;;18.73;13.87;;;2.20;99.90;1.30;101837;;;;592133;239;24100;-79
2022/12/01 02:07:19;;;;;;;19.20;14.23;;;2.20;99.90;1.30;101836;;;;591776;242;24072;-77
2022/12/01 02:09:46;;;;;;;17.27;13.60;;;2.30;99.90;1.30;101848;;;;591882;242;24106;-78
2022/12/01 02:12:33;;;;;;;18.90;14.07;;;2.30;99.90;1.30;101842;;;;592079;242;24158;-79
2022/12/01 02:15:30;;;;;;;16.67;12.90;;;2.30;99.90;1.30;101840;;;;592373;242;24128;-76
2022/12/01 02:18:16;;;;;;;19.27;14.17;;;2.30;99.90;1.30;101851;;;;592516;242;24083;-79
2022/12/01 02:21:18;;;;;;;18.47;13.07;;;2.30;99.90;1.30;101847;;;;591975;242;24106;-75
2022/12/01 02:24:12;;;;;;;19.90;14.30;;;2.30;99.90;1.30;101831;;;;591945;242;24090;-79
2022/12/01 02:26:53;;;;;;;19.73;14.20;;;2.30;99.90;1.30;101835;;;;592395;242;24085;-75
2022/12/01 02:30:06;;;;;;;16.70;13.60;;;2.30;99.90;1.30;101835;;;;592202;242;24118;-74
2022/12/01 02:32:41;;;;;;;18.80;13.27;;;2.30;99.90;1.30;101837;;;;591636;242;24089;-74
2022/12/01 02:35:17;;;;;;;17.07;13.40;;;2.30;99.90;1.30;101841;;;;592235;238;24085;-77
2022/12/01 02:38:10;;;;;;;19.70;14.03;;;2.30;99.90;1.30;101834;;;;592896;240;24123;-75
2022/12/01 02:40:41;;;;;;;19.43;13.17;;;2.30;99.90;1.30;101828;;;;592474;242;24118;-78
2022/12/01 02:43:26;;;;;;;19.80;13.97;;;2.30;99.90;1.30;101837;;;;592742;242;24176;-78
2022/12/01 02:45:59;;;;;;;18.10;13.33;;;2.30;99.90;1.30;101834;;;;592840;242;24112;-78
2022/12/01 02:48:33;;;;;;;19.03;12.93;;;2.30;99.90;1.30;101833;;;;593004;242;24091;-77
2022/12/01 02:51:15;;;;;;;15.83;12.97;;;2.30;99.90;1.30;101828;;;;592865;242;24087;-79
2022/12/01 02:53:46;;;;;;;15.57;13.07;;;2.30;99.90;1.30;101830;;;;592660;242;24071;-78
2022/12/01 02:56:14;;;;;;;17.53;12.73;;;2.30;99.90;1.30;101831;;;;592348;242;24082;-79
2022/12/01 02:58:42;;;;;;;19.00;13.93;;;2.30;99.90;1.30;101833;;;;592414;242;24137;-79
2022/12/01 03:01:21;;;;;;;17.43;13.77;;;2.20;99.90;1.30;101832;;;;592257;242;24092;-79
2022/12/01 03:04:35;;;;;;;16.57;13.00;;;2.20;99.90;1.30;101833;;;;592644;242;24126;-77
2022/12/01 03:07:20;;;;;;;17.53;13.80;;;2.20;99.90;1.30;101825;;;;593087;242;24126;-79
2022/12/01 03:10:06;;;;;;;16.73;12.47;;;2.30;99.90;1.30;101823;;;;593175;242;24085;-78
2022/12/01 03:12:34;;;;;;;17.17;13.40;;;2.20;99.90;1.30;101832;;;;592624;242;24076;-78
2022/12/01 03:15:11;;;;;;;17.47;13.27;;;2.20;99.90;1.30;101826;;;;592309;242;24100;-75
2022/12/01 03:17:39;;;;;;;16.47;12.73;;;2.20;99.90;1.20;101825;;;;591376;242;24099;-75
2022/12/01 03:20:07;;;;;;;16.10;12.10;;;2.20;99.90;1.20;101826;;;;591335;241;24077;-74
2022/12/01 03:22:44;;;;;;;17.30;12.40;;;2.20;99.90;1.20;101830;;;;591608;239;24083;-74
2022/12/01 03:25:12;;;;;;;15.63;12.20;;;2.20;99.90;1.30;101828;;;;590819;242;24084;-74
2022/12/01 03:27:40;;;;;;;16.53;13.17;;;2.20;99.90;1.30;101826;;;;592066;239;24106;-74
2022/12/01 03:30:09;;;;;;;15.50;12.07;;;2.20;99.90;1.20;101825;;;;592105;242;24085;-72
2022/12/01 03:32:38;;;;;;;15.27;12.63;;;2.20;99.90;1.20;101831;;;;592051;242;24205;-74
2022/12/01 03:35:07;;;;;;;14.33;12.73;;;2.20;99.90;1.20;101825;;;;591690;242;24116;-74
2022/12/01 03:37:52;;;;;;;15.50;12.73;;;2.20;99.90;1.20;101826;;;;591732;242;24112;-74
2022/12/01 03:40:19;;;;;;;15.60;11.67;;;2.20;99.90;1.20;101834;;;;591397;242;24111;-74
2022/12/01 03:42:53;;;;;;;15.77;12.37;;;2.20;99.90;1.20;101823;;;;591752;242;24124;-74
2022/12/01 03:45:24;;;;;;;16.37;13.37;;;2.20;99.90;1.30;101830;;;;591613;242;24190;-74
2022/12/01 03:47:52;;;;;;;16.03;12.17;;;2.20;99.90;1.30;101820;;;;591591;240;24149;-74
2022/12/01 03:50:20;;;;;;;16.80;14.40;;;2.20;99.90;1.30;101832;;;;588134;241;35153;-74
2022/12/01 03:52:59;;;;;;;14.67;8.33;;;2.20;99.90;1.30;101821;;;;592990;242;24121;-75
2022/12/01 03:55:29;;;;;;;18.37;11.80;;;2.20;99.90;1.30;101817;;;;593114;242;24088;-76
2022/12/01 03:58:03;;;;;;;15.87;12.73;;;2.20;99.90;1.30;101809;;;;593010;242;24064;-74
2022/12/01 04:00:35;;;;;;;14.60;12.33;;;2.20;99.90;1.30;101817;;;;592772;242;24068;-75
2022/12/01 04:03:01;;;;;;;15.33;12.53;;;2.30;99.90;1.30;101823;;;;592562;242;24107;-74
2022/12/01 04:05:31;;;;;;;15.43;11.97;;;2.30;99.90;1.30;101818;;;;592252;242;24071;-74
2022/12/01 04:07:55;;;;;;;15.47;12.57;;;2.30;99.90;1.30;101821;;;;592285;242;24152;-74
2022/12/01 04:10:23;;;;;;;14.87;11.53;;;2.30;99.90;1.30;101815;;;;592129;238;24118;-73
2022/12/01 04:12:57;;;;;;;16.67;13.37;;;2.30;99.90;1.30;101819;;;;591966;242;24112;-73
2022/12/01 04:15:20;;;;;;;17.70;11.83;;;2.20;99.90;1.30;101819;;;;591773;242;24160;-74
2022/12/01 04:17:48;;;;;;;14.83;11.23;;;2.30;99.90;1.30;101823;;;;592029;242;24113;-73
2022/12/01 04:20:20;;;;;;;14.43;12.60;;;2.30;99.90;1.30;101823;;;;592200;242;24079;-74
2022/12/01 04:22:44;;;;;;;14.20;12.20;;;2.20;99.90;1.30;101822;;;;591842;242;24096;-74
2022/12/01 04:25:12;;;;;;;13.40;11.03;;;2.20;99.90;1.30;101832;;;;591728;242;24131;-74
2022/12/01 04:27:40;;;;;;;15.00;12.03;;;2.20;99.90;1.20;101829;;;;592197;242;24071;-76
2022/12/01 04:30:08;;;;;;;15.73;13.02;;;2.20;99.90;1.20;101825;;;;587174;242;35146;-75
2022/12/01 04:32:42;;;;;;;11.90;7.37;;;2.20;99.90;1.20;101826;;;;592132;242;24090;-73
2022/12/01 04:35:07;;;;;;;16.40;11.30;;;2.20;99.90;1.20;101822;;;;591364;242;24083;-73
2022/12/01 04:37:35;;;;;;;13.63;11.13;;;2.20;99.90;1.30;101823;;;;591838;242;24068;-74
2022/12/01 04:40:03;;;;;;;13.87;11.03;;;2.20;99.90;1.20;101823;;;;591843;238;24068;-76
2022/12/01 04:42:30;;;;;;;16.17;13.52;;;2.20;99.90;1.20;101829;;;;586686;242;35176;-80
2022/12/01 04:44:58;;;;;;;10.23;7.13;;;2.20;99.90;1.20;101820;;;;591990;242;24126;-78
2022/12/01 04:47:26;;;;;;;12.80;10.40;;;2.20;99.90;1.20;101821;;;;592256;239;24091;-80
2022/12/01 04:49:54;;;;;;;12.93;10.60;;;2.20;99.90;1.30;101832;;;;582633;242;24091;-76
2022/12/01 04:52:22;;;;;;;14.10;11.53;;;2.20;99.90;1.30;101825;;;;582577;242;24185;-76
2022/12/01 04:54:50;;;;;;;14.37;11.63;;;2.20;99.90;1.20;101832;;;;582478;242;24075;-76
2022/12/01 04:57:18;;;;;;;16.13;12.97;;;2.20;99.90;1.20;101828;;;;582400;242;24130;-74
2022/12/01 04:59:46;;;;;;;13.43;11.03;;;2.20;99.90;1.20;101826;;;;582140;241;26220;-74
2022/12/01 05:02:14;;;;;;;13.13;10.67;;;2.20;99.90;1.20;101826;;;;583289;242;24088;-75
2022/12/01 05:04:44;;;;;;;13.80;10.67;;;2.20;99.90;1.20;101836;;;;582793;242;24128;-75
2022/12/01 05:07:09;;;;;;;16.00;11.73;;;2.20;99.90;1.20;101839;;;;582656;242;24084;-74
2022/12/01 05:09:38;;;;;;;15.30;12.00;;;2.20;99.90;1.20;101836;;;;582569;242;24116;-75
2022/12/01 05:12:05;;;;;;;13.27;10.57;;;2.20;99.90;1.20;101837;;;;582414;242;24050;-75
2022/12/01 05:14:33;;;;;;;13.20;11.07;;;2.20;99.90;1.20;101840;;;;585304;242;24069;-74
2022/12/01 05:17:01;;;;;;;12.37;11.07;;;2.20;99.90;1.20;101830;;;;583573;242;24059;-74
2022/12/01 05:22:15;;;;;;;13.20;10.77;;;2.20;99.90;1.20;101839;;;;583051;242;24137;-74
2022/12/01 05:24:43;;;;;;;13.60;11.00;;;2.20;99.90;1.20;101834;;;;583350;242;24064;-74
2022/12/01 05:27:12;;;;;;;14.33;11.73;;;2.20;99.90;1.20;101838;;;;583067;242;24077;-75
2022/12/01 05:29:40;;;;;;;15.17;11.17;;;2.20;99.90;1.20;101844;;;;582476;242;24096;-74
2022/12/01 05:32:08;;;;;;;13.53;12.00;;;2.20;99.90;1.20;101845;;;;582719;242;24103;-76
2022/12/01 05:34:36;;;;;;;14.67;12.40;;;2.10;99.90;1.20;101837;;;;583566;242;24054;-75
2022/12/01 05:37:04;;;;;;;18.03;14.60;;;2.10;99.90;1.20;101844;;;;583439;242;24111;-73
2022/12/01 05:39:32;;;;;;;17.77;13.83;;;2.10;99.90;1.20;101845;;;;582594;242;25103;-74
2022/12/01 05:42:00;;;;;;;15.83;13.00;;;2.10;99.90;1.20;101845;;;;582444;242;24066;-73
2022/12/01 05:44:28;;;;;;;17.80;13.37;;;2.10;99.90;1.20;101852;;;;582360;242;24063;-76
2022/12/01 05:46:57;;;;;;;13.80;11.67;;;2.10;99.90;1.10;101848;;;;582679;242;24108;-76
2022/12/01 05:49:26;;;;;;;17.27;14.40;;;2.10;99.90;1.20;101846;;;;582047;242;24079;-76
2022/12/01 05:51:55;;;;;;;16.40;12.57;;;2.10;99.90;1.20;101846;;;;581872;242;24108;-77
2022/12/01 05:54:22;;;;;;;15.70;12.17;;;2.10;99.90;1.20;101856;;;;582163;242;24060;-82
2022/12/01 05:56:50;;;;;;;15.53;12.83;;;2.10;99.90;1.20;101851;;;;581911;242;24100;-78
2022/12/01 05:59:18;;;;;;;15.77;13.00;;;2.10;99.90;1.20;101858;;;;582055;242;24165;-78
2022/12/01 06:01:46;;;;;;;16.37;13.47;;;2.10;99.90;1.10;101863;;;;581944;242;24090;-78
2022/12/01 06:04:14;;;;;;;17.93;13.60;;;2.10;99.90;1.10;101871;;;;581870;242;24214;-79
2022/12/01 06:06:43;;;;;;;15.90;13.47;;;2.00;99.90;1.10;101861;;;;581895;242;24115;-79
2022/12/01 06:09:11;;;;;;;15.00;12.80;;;2.00;99.90;1.10;101861;;;;581850;242;25097;-78
2022/12/01 06:11:39;;;;;;;16.83;13.90;;;2.00;99.90;1.10;101862;;;;582500;242;24097;-79
2022/12/01 06:14:06;;;;;;;14.97;13.23;;;2.00;99.90;1.00;101859;;;;583377;242;24097;-78
2022/12/01 06:16:34;;;;;;;16.63;12.70;;;2.00;99.90;1.00;101873;;;;583009;242;24055;-79
2022/12/01 06:19:02;;;;;;;16.23;12.60;;;2.00;99.90;1.00;101871;;;;593613;242;24056;-77
2022/12/01 06:21:31;;;;;;;15.47;12.90;;;2.00;99.90;1.00;101877;;;;582543;242;24084;-78
2022/12/01 06:24:00;;;;;;;13.63;12.20;;;2.00;99.90;1.00;101879;;;;582532;242;24081;-74
2022/12/01 06:26:28;;;;;;;16.27;12.97;;;2.00;99.90;1.00;101880;;;;582318;242;24124;-75
2022/12/01 06:28:55;;;;;;;14.57;12.33;;;2.00;99.90;1.00;101873;;;;582844;242;24116;-75
2022/12/01 06:31:23;;;;;;;13.87;11.87;;;2.00;99.90;1.00;101873;;;;582642;242;24079;-75
2022/12/01 06:33:51;;;;;;;15.10;11.93;;;2.00;99.90;1.00;101885;;;;582531;242;24059;-74
2022/12/01 06:36:19;;;;;;;15.83;12.30;;;2.00;99.90;1.00;101879;;;;582484;242;24126;-73
2022/12/01 06:38:48;;;;;;;15.77;13.30;;;1.90;99.90;1.00;101883;;;;582653;242;24070;-74
2022/12/01 06:41:17;;;;;;;16.53;14.20;;;1.90;99.90;1.00;101882;;;;582615;242;24062;-74
2022/12/01 06:43:44;;;;;;;16.90;14.57;;;1.90;99.90;0.90;101876;;;;582578;242;24057;-74
2022/12/01 06:46:12;;;;;;;17.23;14.53;;;1.90;99.90;0.90;101884;;;;582541;242;24095;-73
2022/12/01 06:48:40;;;;;;;17.33;14.07;;;1.90;99.90;0.90;101889;;;;582399;242;24091;-73
2022/12/01 06:51:08;;;;;;;18.07;15.03;;;1.90;99.90;1.00;101882;;;;581804;242;24063;-73
2022/12/01 06:53:36;;;;;;;17.13;14.37;;;1.90;99.90;1.00;101886;;;;581984;242;24149;-75
2022/12/01 06:56:04;;;;;;;18.10;14.53;;;1.90;99.90;1.00;101880;;;;581982;242;25102;-75
2022/12/01 06:58:33;;;;;;;19.50;14.47;;;1.90;99.90;1.00;101886;;;;582104;242;24209;-73
2022/12/01 07:01:00;;;;;;;23.00;14.07;;;1.90;99.90;1.00;101889;;;;581993;242;24097;-76
2022/12/01 07:03:28;;;;;;;17.37;14.37;;;1.90;99.90;1.00;101884;;;;582139;242;24105;-78
2022/12/01 07:05:57;;;;;;;19.40;14.50;;;2.00;99.90;1.00;101881;;;;582191;242;24074;-74
2022/12/01 07:08:24;;;;;;;17.13;14.00;;;2.00;99.90;1.00;101889;;;;583251;242;24420;-73
2022/12/01 07:11:03;;;;;;;17.20;14.07;;;2.00;99.90;1.00;101888;;;;582236;242;24108;-76
2022/12/01 07:13:32;;;;;;;15.43;12.13;;;2.00;99.90;1.00;101884;;;;584060;242;24125;-78
2022/12/01 07:16:01;;;;;;;16.10;13.57;;;2.00;99.90;1.00;101886;;;;593544;242;24073;-77
2022/12/01 07:18:29;;;;;;;16.67;13.00;;;1.90;99.90;1.00;101880;;;;582374;242;24056;-73
2022/12/01 07:21:00;;;;;;;18.10;13.00;;;2.00;99.90;1.00;101882;;;;582616;242;24049;-78
2022/12/01 07:23:27;;;;;;;17.80;13.80;;;2.00;99.90;1.00;101882;;;;582908;242;24121;-75
2022/12/01 07:26:04;;;;;;;16.53;13.63;;;2.00;99.90;1.00;101882;;;;583906;242;24063;-77
2022/12/01 07:28:32;;;;;;;14.90;12.47;;;2.00;99.90;1.00;101886;;;;583993;241;24069;-76
2022/12/01 07:31:05;;;;;;;16.13;11.90;;;2.00;99.90;1.00;101887;;;;583065;242;24103;-79
2022/12/01 07:33:33;;;;;;;16.27;12.57;;;2.00;99.90;1.00;101890;;;;584598;242;24074;-79
2022/12/01 07:36:01;;;;;;;15.80;12.43;;;2.00;99.90;1.00;101885;;;;582823;242;24097;-74
2022/12/01 07:38:29;;;;;;;14.40;11.53;;;2.00;99.90;1.00;101892;;;;582642;242;24090;-74
2022/12/01 07:41:06;;;;;;;12.77;11.43;;;2.00;99.90;1.00;101885;;;;584013;242;24103;-74
2022/12/01 07:43:37;;;;;;;12.37;11.07;;;2.00;99.90;1.00;101881;;;;583813;242;24104;-74
2022/12/01 07:46:17;;;;;;;15.23;11.73;;;2.00;99.90;1.00;101888;;;;582022;242;24102;-74
2022/12/01 07:48:48;;;;;;;20.70;11.60;;;2.00;99.90;1.00;101892;;;;583928;242;24095;-74
2022/12/01 07:51:15;;;;;;;19.33;12.83;;;2.00;99.90;1.00;101893;;;;583773;242;24068;-74
2022/12/01 07:53:40;;;;;;;18.33;13.37;;;1.90;99.90;1.00;101889;;;;592966;242;24067;-80
2022/12/01 07:56:09;;;;;;;19.20;12.83;;;2.00;99.90;1.00;101892;;;;582677;242;24075;-75
2022/12/01 07:58:40;;;;;;;14.50;12.83;;;2.00;99.90;1.10;101899;;;;583016;242;24042;-75
2022/12/01 08:01:17;;;;;;;21.80;14.50;;;2.00;99.90;1.10;101896;;;;582153;242;24087;-79
2022/12/01 08:03:46;;;;;;;17.53;14.20;;;2.10;99.90;1.10;101897;;;;584483;242;25200;-79
2022/12/01 08:06:14;;;;;;;19.80;14.60;;;2.00;99.90;1.10;101896;;;;584123;242;24074;-79
2022/12/01 08:08:42;;;;;;;15.90;13.32;;;2.10;99.90;1.20;101895;;;;577264;242;46071;-80
2022/12/01 08:11:18;;;;;;;10.33;6.60;;;2.10;99.90;1.20;101889;;;;582616;242;24077;-79
2022/12/01 08:13:46;;;;;;;21.33;11.53;;;2.20;99.90;1.20;101894;;;;583155;242;24126;-77
2022/12/01 08:16:14;;;;;;;34.87;12.87;;;2.20;99.90;1.30;101893;;;;582548;242;24066;-75
2022/12/01 08:18:42;;;;;;;17.97;11.57;;;2.20;99.90;1.40;101900;;;;582541;242;24151;-79
2022/12/01 08:21:14;;;;;;;20.70;13.53;;;2.30;99.90;1.40;101890;;;;582578;242;24061;-79
2022/12/01 08:23:41;;;;;;;20.43;12.07;;;2.30;99.90;1.40;101894;;;;582375;242;24075;-75
2022/12/01 08:26:06;;;;;;;21.33;12.20;;;2.40;99.90;1.40;101897;;;;593162;242;24167;-79
2022/12/01 08:28:37;;;;;;;16.33;11.40;;;2.40;99.90;1.40;101897;;;;584157;242;24068;-77
2022/12/01 08:31:18;;;;;;;16.20;12.37;;;2.40;99.90;1.40;101895;;;;581960;242;24107;-74
2022/12/01 08:33:49;;;;;;;14.40;12.50;;;2.40;99.90;1.50;101898;;;;583804;242;24107;-78
2022/12/01 08:36:16;;;;;;;13.00;9.70;;;2.50;99.90;1.50;101896;;;;583096;242;24070;-75
2022/12/01 08:38:44;;;;;;;11.37;9.97;;;2.50;99.90;1.50;101907;;;;584660;242;26334;-74
2022/12/01 08:41:12;;;;;;;12.53;10.23;;;2.50;99.90;1.40;101900;;;;584352;242;24153;-80
2022/12/01 08:43:44;;;;;;;11.60;9.50;;;2.40;99.90;1.50;101912;;;;584556;242;24078;-77
2022/12/01 08:46:08;;;;;;;13.63;9.50;;;2.40;99.90;1.50;101905;;;;583622;238;24065;-75
2022/12/01 08:48:37;;;;;;;13.33;9.50;;;2.40;99.90;1.50;101905;;;;581807;242;24159;-75
2022/12/01 08:51:11;;;;;;;13.53;10.37;;;2.40;99.90;1.50;101910;;;;584024;242;24063;-75
2022/12/01 08:53:39;;;;;;;19.17;12.80;;;2.40;99.90;1.50;101911;;;;583729;242;24116;-75
2022/12/01 08:56:07;;;;;;;13.47;10.67;;;2.40;99.90;1.50;101912;;;;582018;242;24078;-77
2022/12/01 08:58:35;;;;;;;11.70;10.17;;;2.50;99.90;1.40;101917;;;;583581;242;24095;-76
2022/12/01 09:01:03;;;;;;;13.73;10.67;;;2.40;99.90;1.40;101907;;;;582083;242;24114;-75
2022/12/01 09:03:32;;;;;;;16.30;9.60;;;2.40;99.90;1.50;101912;;;;583722;242;24137;-75
2022/12/01 09:06:08;;;;;;;17.47;10.43;;;2.40;99.90;1.50;101902;;;;584302;242;24168;-75
2022/12/01 09:08:36;;;;;;;22.93;10.60;;;2.40;99.90;1.40;101904;;;;583900;242;24093;-76
2022/12/01 09:11:07;;;;;;;18.60;10.13;;;2.40;99.90;1.40;101912;;;;582112;242;24073;-80
2022/12/01 09:13:35;;;;;;;12.30;11.00;;;2.30;99.90;1.40;101905;;;;583581;242;24072;-75
2022/12/01 09:16:15;;;;;;;13.57;11.27;;;2.30;99.90;1.40;101907;;;;581839;242;24096;-75
2022/12/01 09:18:43;;;;;;;11.70;9.40;;;2.30;99.90;1.40;101903;;;;583723;242;24111;-74
2022/12/01 09:21:20;;;;;;;11.90;10.33;;;2.40;99.90;1.40;101902;;;;581393;242;24064;-75
2022/12/01 09:23:48;;;;;;;12.50;9.87;;;2.40;99.90;1.50;101894;;;;583616;242;24067;-74
2022/12/01 09:26:17;;;;;;;11.40;10.07;;;2.50;99.90;1.50;101891;;;;583629;242;24150;-74
2022/12/01 09:28:48;;;;;;;11.97;9.83;;;2.50;99.90;1.60;101885;;;;592869;242;24164;-76
2022/12/01 09:31:13;;;;;;;13.20;10.03;;;2.50;99.90;1.70;101883;;;;592658;242;24119;-74
2022/12/01 09:33:41;;;;;;;16.30;9.90;;;2.60;99.90;1.80;101891;;;;582533;242;24063;-78
2022/12/01 09:36:09;;;;;;;11.50;9.83;;;2.70;99.90;1.80;101893;;;;584199;242;24051;-76
2022/12/01 09:38:37;;;;;;;12.97;8.83;;;2.80;99.90;1.90;101886;;;;584583;242;25140;-76
2022/12/01 09:41:07;;;;;;;9.40;8.23;;;2.90;99.90;2.00;101883;;;;584794;242;24101;-77
2022/12/01 09:43:42;;;;;;;11.40;8.17;;;3.10;99.90;2.20;101886;;;;593088;238;24084;-78
2022/12/01 09:46:10;;;;;;;10.50;6.00;;;3.10;99.90;2.30;101879;;;;584334;241;24081;-77
2022/12/01 09:48:43;;;;;;;6.57;4.90;;;3.30;99.90;2.50;101883;;;;585384;242;24150;-76
2022/12/01 09:51:23;;;;;;;12.03;7.07;;;3.40;99.90;2.60;101879;;;;585143;242;24067;-75
2022/12/01 09:53:51;;;;;;;10.07;5.70;;;3.60;99.90;2.60;101877;;;;584890;242;24069;-77
2022/12/01 09:56:19;;;;;;;9.83;6.10;;;3.50;99.90;2.60;101886;;;;584338;242;24166;-77
2022/12/01 09:58:50;;;;;;;12.23;7.13;;;3.60;99.90;2.60;101883;;;;584085;242;24137;-75
2022/12/01 10:01:17;;;;;;;8.30;5.87;;;3.60;99.90;2.60;101882;;;;584260;242;24116;-76
2022/12/01 10:03:47;;;;;;;9.47;5.43;;;3.50;99.90;2.60;101883;;;;581850;242;25131;-74
2022/12/01 10:06:15;;;;;;;8.33;5.77;;;3.60;99.90;2.70;101876;;;;583987;242;24134;-75
2022/12/01 10:08:44;;;;;;;8.43;5.97;;;3.60;99.90;2.70;101874;;;;583341;242;24085;-76
2022/12/01 10:11:28;;;;;;;11.27;5.60;;;3.70;99.90;2.80;101879;;;;583424;242;24123;-76
2022/12/01 10:13:56;;;;;;;7.60;5.67;;;3.70;99.90;2.90;101864;;;;583831;242;24103;-75
2022/12/01 10:16:25;;;;;;;8.03;5.50;;;3.80;99.90;3.00;101871;;;;583962;242;24126;-78
2022/12/01 10:19:15;;;;;;;8.70;4.90;;;3.90;99.90;3.10;101874;;;;583807;242;24067;-77
2022/12/01 10:22:01;;;;;;;15.27;5.10;;;4.00;99.90;3.10;101859;;;;587734;238;24059;-75
2022/12/01 10:24:38;;;;;;;6.77;4.97;;;4.00;99.90;3.10;101858;;;;575429;242;24147;-78
2022/12/01 10:27:24;;;;;;;7.80;4.83;;;4.00;99.90;3.00;101862;;;;583636;242;24075;-76
2022/12/01 10:30:01;;;;;;;8.80;5.33;;;4.00;99.90;3.00;101869;;;;583433;242;24119;-76
2022/12/01 10:32:44;;;;;;;8.63;5.77;;;3.90;99.90;3.00;101865;;;;583903;242;24071;-78
2022/12/01 10:35:12;;;;;;;8.17;4.80;;;3.90;99.90;3.00;101856;;;;583958;242;24102;-80
2022/12/01 10:37:40;;;;;;;7.43;5.20;;;3.90;99.90;3.00;101863;;;;593044;242;24067;-78
2022/12/01 10:40:13;;;;;;;8.30;5.73;;;3.90;99.90;3.00;101859;;;;583971;242;24114;-76
2022/12/01 10:42:47;;;;;;;15.90;6.17;;;3.90;99.90;3.10;101854;;;;583992;242;24074;-78
2022/12/01 10:45:24;;;;;;;8.23;5.50;;;3.90;99.90;3.10;101859;;;;584164;242;24133;-79
2022/12/01 10:48:07;;;;;;;10.03;6.30;;;4.00;99.90;3.10;101863;;;;583891;242;24238;-78
2022/12/01 10:50:35;;;;;;;12.70;6.00;;;4.00;99.90;3.10;101855;;;;584098;242;24071;-75
2022/12/01 10:53:03;;;;;;;6.00;4.67;;;4.00;99.90;3.10;101849;;;;589961;242;24083;-77
2022/12/01 10:55:34;;;;;;;10.90;5.47;;;4.00;99.90;3.10;101859;;;;581665;242;24083;-76
2022/12/01 10:58:05;;;;;;;10.27;4.53;;;4.00;99.90;3.10;101870;;;;584315;242;24141;-77
2022/12/01 11:00:33;;;;;;;7.00;4.67;;;4.00;99.90;3.10;101853;;;;584856;242;24107;-77
2022/12/01 11:03:02;;;;;;;8.13;3.97;;;4.00;99.90;3.10;101842;;;;584419;242;24146;-76
2022/12/01 11:05:32;;;;;;;7.10;4.13;;;4.00;99.90;3.10;101847;;;;584511;242;24112;-77
2022/12/01 11:08:01;;;;;;;8.23;5.23;;;3.90;99.90;3.00;101858;;;;584552;242;24111;-74
2022/12/01 11:10:29;;;;;;;7.93;4.57;;;4.00;99.90;2.90;101849;;;;583996;242;24250;-75
2022/12/01 11:12:57;;;;;;;11.97;5.37;;;3.90;99.90;2.90;101858;;;;581860;242;24147;-78
2022/12/01 11:15:28;;;;;;;6.83;5.10;;;3.90;99.90;2.90;101853;;;;584007;242;24149;-74
2022/12/01 11:18:01;;;;;;;6.87;3.90;;;3.80;99.90;2.80;101852;;;;583990;238;24109;-74
2022/12/01 11:20:38;;;;;;;5.47;2.93;;;3.80;99.90;2.80;101862;;;;581714;242;24134;-75
2022/12/01 11:23:09;;;;;;;8.47;4.90;;;3.70;99.90;2.80;101851;;;;584007;238;24116;-75
2022/12/01 11:25:37;;;;;;;8.63;4.23;;;3.70;99.90;2.70;101848;;;;582349;242;24075;-75
2022/12/01 11:28:08;;;;;;;5.40;3.80;;;3.60;99.90;2.70;101858;;;;584048;242;24055;-74
2022/12/01 11:30:34;;;;;;;7.47;4.97;;;3.60;99.90;2.70;101842;;;;583679;242;24088;-80